Time,TemperatureF,DewpointF,PressureIn,WindDirection,WindDirectionDegrees,WindSpeedMPH,WindSpeedGustMPH,Humidity,HourlyPrecipIn,Conditions,Clouds,dailyrainin,SoftwareType,DateUTC
2013-09-06 00:04:00,77.4,72.0,30.06,South,176,0.0,0.0,82,0.00,,,0.00,weatherlink.com 1.10,2013-09-06 05:04:00,
2013-09-06 00:19:00,76.9,71.0,30.06,South,176,0.0,0.0,83,0.00,,,0.00,weatherlink.com 1.10,2013-09-06 05:19:00,
2013-09-06 00:34:00,76.5,71.0,30.06,South,176,0.0,0.0,84,0.00,,,0.00,weatherlink.com 1.10,2013-09-06 05:34:00,
2013-09-06 00:49:00,76.2,71.0,30.06,South,176,0.0,0.0,85,0.00,,,0.00,weatherlink.com 1.10,2013-09-06 05:49:00,
2013-09-06 01:04:00,75.7,71.0,30.06,South,176,0.0,1.0,85,0.00,,,0.00,weatherlink.com 1.10,2013-09-06 06:04:00,
2013-09-06 01:19:00,75.5,71.0,30.06,South,176,0.0,0.0,85,0.00,,,0.00,weatherlink.com 1.10,2013-09-06 06:19:00,
2013-09-06 01:34:00,75.3,71.0,30.06,South,176,0.0,2.0,85,0.00,,,0.00,weatherlink.com 1.10,2013-09-06 06:34:00,
2013-09-06 01:49:00,75.0,71.0,30.06,South,176,0.0,0.0,86,0.00,,,0.00,weatherlink.com 1.10,2013-09-06 06:49:00,
2013-09-06 02:04:00,74.7,70.0,30.05,South,176,0.0,0.0,86,0.00,,,0.00,weatherlink.com 1.10,2013-09-06 07:04:00,
2013-09-06 02:19:00,74.4,70.0,30.05,South,176,0.0,0.0,86,0.00,,,0.00,weatherlink.com 1.10,2013-09-06 07:19:00,
2013-09-06 02:35:00,74.1,70.0,30.05,South,176,0.0,0.0,86,0.00,,,0.00,weatherlink.com 1.10,2013-09-06 07:35:00,
2013-09-06 02:50:00,73.8,69.0,30.05,South,176,0.0,0.0,86,0.00,,,0.00,weatherlink.com 1.10,2013-09-06 07:50:00,
2013-09-06 03:05:00,73.5,69.0,30.05,South,176,0.0,0.0,86,0.00,,,0.00,weatherlink.com 1.10,2013-09-06 08:05:00,
2013-09-06 03:20:00,73.3,69.0,30.05,South,176,0.0,0.0,86,0.00,,,0.00,weatherlink.com 1.10,2013-09-06 08:20:00,
2013-09-06 03:35:00,73.0,69.0,30.05,South,176,0.0,0.0,86,0.00,,,0.00,weatherlink.com 1.10,2013-09-06 08:35:00,
2013-09-06 03:50:00,72.7,68.0,30.05,South,176,0.0,0.0,86,0.00,,,0.00,weatherlink.com 1.10,2013-09-06 08:50:00,
2013-09-06 04:05:00,72.4,68.0,30.04,South,176,0.0,0.0,86,0.00,,,0.00,weatherlink.com 1.10,2013-09-06 09:05:00,
2013-09-06 04:20:00,72.1,68.0,30.04,South,176,0.0,0.0,86,0.00,,,0.00,weatherlink.com 1.10,2013-09-06 09:20:00,
2013-09-06 04:35:00,71.9,68.0,30.04,South,176,0.0,0.0,86,0.00,,,0.00,weatherlink.com 1.10,2013-09-06 09:35:00,
2013-09-06 04:50:00,71.6,67.0,30.04,South,176,0.0,0.0,86,0.00,,,0.00,weatherlink.com 1.10,2013-09-06 09:50:00,
2013-09-06 05:05:00,71.4,67.0,30.04,South,176,0.0,0.0,85,0.00,,,0.00,weatherlink.com 1.10,2013-09-06 10:05:00,
2013-09-06 05:20:00,71.3,67.0,30.04,South,176,0.0,0.0,85,0.00,,,0.00,weatherlink.com 1.10,2013-09-06 10:20:00,
2013-09-06 05:35:00,71.1,66.0,30.05,South,176,0.0,0.0,85,0.00,,,0.00,weatherlink.com 1.10,2013-09-06 10:35:00,
2013-09-06 05:50:00,70.9,66.0,30.05,South,176,0.0,0.0,85,0.00,,,0.00,weatherlink.com 1.10,2013-09-06 10:50:00,
2013-09-06 06:05:00,70.7,66.0,30.05,South,176,0.0,0.0,85,0.00,,,0.00,weatherlink.com 1.10,2013-09-06 11:05:00,
2013-09-06 06:20:00,70.5,66.0,30.05,South,176,0.0,0.0,85,0.00,,,0.00,weatherlink.com 1.10,2013-09-06 11:20:00,
2013-09-06 06:35:00,70.5,66.0,30.05,South,176,0.0,0.0,84,0.00,,,0.00,weatherlink.com 1.10,2013-09-06 11:35:00,
2013-09-06 06:50:00,70.7,66.0,30.05,SSW,203,0.0,0.0,84,0.00,,,0.00,weatherlink.com 1.10,2013-09-06 11:50:00,
2013-09-06 07:05:00,70.4,65.0,30.06,SSW,203,0.0,0.0,84,0.00,,,0.00,weatherlink.com 1.10,2013-09-06 12:05:00,
2013-09-06 07:20:00,70.0,65.0,30.06,SSW,203,0.0,0.0,84,0.00,,,0.00,weatherlink.com 1.10,2013-09-06 12:20:00,
2013-09-06 07:35:00,70.2,65.0,30.07,SSW,203,0.0,0.0,84,0.00,,,0.00,weatherlink.com 1.10,2013-09-06 12:35:00,
2013-09-06 07:50:00,70.3,65.0,30.07,SSW,203,0.0,0.0,84,0.00,,,0.00,weatherlink.com 1.10,2013-09-06 12:50:00,
2013-09-06 08:05:00,70.7,65.0,30.07,SSW,203,0.0,1.0,83,0.00,,,0.00,weatherlink.com 1.10,2013-09-06 13:05:00,
2013-09-06 08:20:00,71.3,66.0,30.08,SSW,203,0.0,0.0,83,0.00,,,0.00,weatherlink.com 1.10,2013-09-06 13:20:00,
2013-09-06 08:35:00,72.5,67.0,30.08,SSW,203,0.0,0.0,82,0.00,,,0.00,weatherlink.com 1.10,2013-09-06 13:35:00,
2013-09-06 08:50:00,74.2,68.0,30.08,SSW,203,0.0,1.0,82,0.00,,,0.00,weatherlink.com 1.10,2013-09-06 13:50:00,
2013-09-06 09:05:00,75.4,70.0,30.08,SSW,203,0.0,0.0,83,0.00,,,0.00,weatherlink.com 1.10,2013-09-06 14:05:00,
2013-09-06 09:20:00,78.0,74.0,30.08,SSW,203,0.0,1.0,86,0.00,,,0.00,weatherlink.com 1.10,2013-09-06 14:20:00,
2013-09-06 09:35:00,80.2,75.0,30.09,SSW,203,0.0,2.0,83,0.00,,,0.00,weatherlink.com 1.10,2013-09-06 14:35:00,
2013-09-06 09:50:00,82.8,76.0,30.09,SSW,195,0.0,1.0,79,0.00,,,0.00,weatherlink.com 1.10,2013-09-06 14:50:00,
2013-09-06 10:05:00,85.0,76.0,30.09,South,188,1.0,1.0,74,0.00,,,0.00,weatherlink.com 1.10,2013-09-06 15:05:00,
2013-09-06 10:20:00,86.9,76.0,30.09,SSW,192,0.0,1.0,69,0.00,,,0.00,weatherlink.com 1.10,2013-09-06 15:20:00,
2013-09-06 10:35:00,88.5,75.0,30.09,SSE,167,0.0,4.0,64,0.00,,,0.00,weatherlink.com 1.10,2013-09-06 15:35:00,
2013-09-06 10:50:00,88.2,74.0,30.09,West,259,0.0,7.0,62,0.00,,,0.00,weatherlink.com 1.10,2013-09-06 15:50:00,
2013-09-06 11:06:00,90.4,73.0,30.09,SE,129,0.0,4.0,57,0.00,,,0.00,weatherlink.com 1.10,2013-09-06 16:06:00,
2013-09-06 11:21:00,91.3,74.0,30.08,SSW,195,0.0,5.0,57,0.00,,,0.00,weatherlink.com 1.10,2013-09-06 16:21:00,
2013-09-06 11:36:00,92.2,73.0,30.08,South,173,0.0,3.0,54,0.00,,,0.00,weatherlink.com 1.10,2013-09-06 16:36:00,
2013-09-06 11:51:00,93.2,73.0,30.08,SSE,162,0.0,4.0,52,0.00,,,0.00,weatherlink.com 1.10,2013-09-06 16:51:00,
2013-09-06 12:06:00,93.9,73.0,30.07,SSW,211,0.0,3.0,51,0.00,,,0.00,weatherlink.com 1.10,2013-09-06 17:06:00,
2013-09-06 12:21:00,92.2,73.0,30.06,SW,236,0.0,6.0,53,0.00,,,0.00,weatherlink.com 1.10,2013-09-06 17:21:00,
2013-09-06 12:36:00,93.9,73.0,30.06,South,172,0.0,7.0,51,0.00,,,0.00,weatherlink.com 1.10,2013-09-06 17:36:00,
2013-09-06 12:51:00,95.9,74.0,30.05,East,99,0.0,7.0,49,0.00,,,0.00,weatherlink.com 1.10,2013-09-06 17:51:00,
2013-09-06 13:06:00,95.2,73.0,30.05,WSW,258,0.0,5.0,49,0.00,,,0.00,weatherlink.com 1.10,2013-09-06 18:06:00,
2013-09-06 13:21:00,96.1,74.0,30.04,SSE,153,0.0,5.0,49,0.00,,,0.00,weatherlink.com 1.10,2013-09-06 18:21:00,
2013-09-06 13:36:00,93.2,73.0,30.04,South,170,0.0,6.0,52,0.00,,,0.00,weatherlink.com 1.10,2013-09-06 18:36:00,
2013-09-06 13:51:00,94.2,71.0,30.03,SSE,159,0.0,1.0,47,0.00,,,0.00,weatherlink.com 1.10,2013-09-06 18:51:00,
2013-09-06 14:21:00,91.4,72.0,30.02,ESE,122,0.0,5.0,54,0.00,,,0.00,weatherlink.com 1.10,2013-09-06 19:21:00,
2013-09-06 14:36:00,90.4,72.0,30.01,SW,217,0.0,1.0,55,0.00,,,0.00,weatherlink.com 1.10,2013-09-06 19:36:00,
2013-09-06 14:51:00,91.8,73.0,30.00,South,189,0.0,1.0,54,0.00,,,0.00,weatherlink.com 1.10,2013-09-06 19:51:00,
2013-09-06 15:06:00,93.9,71.0,29.99,SW,234,0.0,4.0,48,0.00,,,0.00,weatherlink.com 1.10,2013-09-06 20:06:00,
2013-09-06 15:21:00,93.3,72.0,29.99,ESE,122,0.0,1.0,50,0.00,,,0.00,weatherlink.com 1.10,2013-09-06 20:21:00,
2013-09-06 15:36:00,93.2,72.0,29.98,SSE,153,0.0,1.0,51,0.00,,,0.00,weatherlink.com 1.10,2013-09-06 20:36:00,
2013-09-06 15:51:00,93.9,71.0,29.97,SE,130,0.0,4.0,47,0.00,,,0.00,weatherlink.com 1.10,2013-09-06 20:51:00,
2013-09-06 16:06:00,95.7,70.0,29.96,ESE,111,0.0,5.0,44,0.00,,,0.00,weatherlink.com 1.10,2013-09-06 21:06:00,
2013-09-06 16:21:00,97.7,70.0,29.95,SE,141,2.0,7.0,41,0.00,,,0.00,weatherlink.com 1.10,2013-09-06 21:21:00,
2013-09-06 16:36:00,96.4,68.0,29.95,SSE,147,0.0,7.0,40,0.00,,,0.00,weatherlink.com 1.10,2013-09-06 21:36:00,
2013-09-06 16:52:00,96.6,69.0,29.95,SSE,166,0.0,3.0,40,0.00,,,0.00,weatherlink.com 1.10,2013-09-06 21:52:00,
2013-09-06 17:06:00,96.2,68.0,29.95,ESE,107,0.0,4.0,40,0.00,,,0.00,weatherlink.com 1.10,2013-09-06 22:06:00,
2013-09-06 17:21:00,96.1,69.0,29.95,SSE,147,0.0,5.0,41,0.00,,,0.00,weatherlink.com 1.10,2013-09-06 22:21:00,
2013-09-06 17:36:00,96.3,69.0,29.95,North,359,0.0,5.0,41,0.00,,,0.00,weatherlink.com 1.10,2013-09-06 22:36:00,
2013-09-06 17:51:00,96.3,70.0,29.95,SSW,206,0.0,1.0,42,0.00,,,0.00,weatherlink.com 1.10,2013-09-06 22:51:00,
2013-09-06 18:06:00,95.9,70.0,29.95,SE,140,0.0,1.0,43,0.00,,,0.00,weatherlink.com 1.10,2013-09-06 23:06:00,
2013-09-06 18:22:00,94.9,70.0,29.95,South,184,0.0,2.0,44,0.00,,,0.00,weatherlink.com 1.10,2013-09-06 23:22:00,
2013-09-06 18:36:00,93.2,71.0,29.95,South,184,0.0,1.0,48,0.00,,,0.00,weatherlink.com 1.10,2013-09-06 23:36:00,
2013-09-06 18:52:00,91.0,71.0,29.95,South,184,0.0,1.0,52,0.00,,,0.00,weatherlink.com 1.10,2013-09-06 23:52:00,
2013-09-06 19:06:00,90.1,70.0,29.95,South,184,0.0,1.0,52,0.00,,,0.00,weatherlink.com 1.10,2013-09-07 00:06:00,
2013-09-06 19:21:00,89.3,72.0,29.95,South,184,0.0,0.0,56,0.00,,,0.00,weatherlink.com 1.10,2013-09-07 00:21:00,
2013-09-06 19:36:00,87.1,71.0,29.96,South,184,0.0,1.0,59,0.00,,,0.00,weatherlink.com 1.10,2013-09-07 00:36:00,
2013-09-06 19:51:00,86.2,72.0,29.96,WSW,243,2.0,3.0,62,0.00,,,0.00,weatherlink.com 1.10,2013-09-07 00:51:00,
2013-09-06 20:07:00,86.2,72.0,29.98,SSE,158,0.0,4.0,62,0.00,,,0.00,weatherlink.com 1.10,2013-09-07 01:07:00,
2013-09-06 20:22:00,85.7,73.0,29.98,SW,230,1.0,4.0,65,0.00,,,0.00,weatherlink.com 1.10,2013-09-07 01:22:00,
2013-09-06 20:36:00,85.0,73.0,29.99,SSE,168,1.0,3.0,68,0.00,,,0.00,weatherlink.com 1.10,2013-09-07 01:36:00,
2013-09-06 20:51:00,83.9,74.0,29.99,SW,215,0.0,1.0,71,0.00,,,0.00,weatherlink.com 1.10,2013-09-07 01:51:00,
2013-09-06 21:06:00,83.0,73.0,29.99,SSW,213,0.0,1.0,71,0.00,,,0.00,weatherlink.com 1.10,2013-09-07 02:06:00,
2013-09-06 21:21:00,82.4,72.0,30.00,SE,126,0.0,3.0,70,0.00,,,0.00,weatherlink.com 1.10,2013-09-07 02:21:00,
2013-09-06 21:36:00,81.6,69.0,30.00,SE,132,0.0,2.0,66,0.00,,,0.00,weatherlink.com 1.10,2013-09-07 02:36:00,
2013-09-06 21:51:00,81.0,69.0,30.00,SE,132,0.0,0.0,67,0.00,,,0.00,weatherlink.com 1.10,2013-09-07 02:51:00,
2013-09-06 22:06:00,80.3,70.0,30.00,SE,132,0.0,0.0,70,0.00,,,0.00,weatherlink.com 1.10,2013-09-07 03:06:00,
2013-09-06 22:21:00,79.4,69.0,30.00,SE,131,0.0,0.0,71,0.00,,,0.00,weatherlink.com 1.10,2013-09-07 03:21:00,
2013-09-06 22:36:00,78.5,69.0,30.00,SE,131,0.0,0.0,72,0.00,,,0.00,weatherlink.com 1.10,2013-09-07 03:36:00,
2013-09-06 22:51:00,77.8,69.0,30.00,SE,132,0.0,0.0,74,0.00,,,0.00,weatherlink.com 1.10,2013-09-07 03:51:00,
2013-09-06 23:06:00,77.3,69.0,30.00,SE,131,0.0,0.0,76,0.00,,,0.00,weatherlink.com 1.10,2013-09-07 04:06:00,
2013-09-06 23:21:00,76.7,69.0,30.00,SE,132,0.0,0.0,78,0.00,,,0.00,weatherlink.com 1.10,2013-09-07 04:21:00,
2013-09-06 23:36:00,76.3,69.0,30.00,SE,132,0.0,0.0,79,0.00,,,0.00,weatherlink.com 1.10,2013-09-07 04:36:00,
2013-09-06 23:52:00,75.8,69.0,30.00,SE,132,0.0,0.0,80,0.00,,,0.00,weatherlink.com 1.10,2013-09-07 04:52:00,